Salem, South Dakota
Current Conditions -  °F | °C
As of 10:35 PM on Tuesday 21 Oct 2014 (Local Time) from KMDS Reporting Station
Clear Clear  
Wind Chill: 55°   Ceiling: Unl
Heat Index: 55°   Visibility: 10mi
Dew Point: 41°   Wind: 13mph
Humidity: 58%   Direction: 150°SSE
Pressure: 30"   Gusts: 18mph
Location:  43.72°N, 97.39°W
Report Text: KMDS 220335Z AUTO 15011G16KT 10SM CLR 13/05 A3000 RMK AO2
Loading
Personal Weather Stations






























Interactive Weather Map
Tropical Storm Tracking
New forecast layout! Learn more

10-Day Weather Forecast

Advertisements
Track Severe Weather on mobile